sensor_id;sensor_type;location;lat;lon;timestamp;temperature;humidity
10901;DHT22;5503;53.208;10.392;2022-10-31T00:00:30;10.10;99.90
10901;DHT22;5503;53.208;10.392;2022-10-31T00:02:59;10.00;99.90
10901;DHT22;5503;53.208;10.392;2022-10-31T00:05:26;10.00;99.90
10901;DHT22;5503;53.208;10.392;2022-10-31T00:07:53;10.00;99.90
10901;DHT22;5503;53.208;10.392;2022-10-31T00:10:20;9.90;99.90
10901;DHT22;5503;53.208;10.392;2022-10-31T00:12:47;10.00;99.90
10901;DHT22;5503;53.208;10.392;2022-10-31T00:15:14;9.90;99.90
10901;DHT22;5503;53.208;10.392;2022-10-31T00:17:40;9.90;99.90
10901;DHT22;5503;53.208;10.392;2022-10-31T00:20:09;9.90;99.90
10901;DHT22;5503;53.208;10.392;2022-10-31T00:22:36;9.90;99.90
10901;DHT22;5503;53.208;10.392;2022-10-31T00:25:03;9.90;99.90
10901;DHT22;5503;53.208;10.392;2022-10-31T00:27:30;9.80;99.90
10901;DHT22;5503;53.208;10.392;2022-10-31T00:29:57;9.80;99.90
10901;DHT22;5503;53.208;10.392;2022-10-31T00:32:24;9.80;99.90
10901;DHT22;5503;53.208;10.392;2022-10-31T00:34:51;9.80;99.90
10901;DHT22;5503;53.208;10.392;2022-10-31T00:37:19;10.90;99.90
10901;DHT22;5503;53.208;10.392;2022-10-31T00:39:46;9.80;99.90
10901;DHT22;5503;53.208;10.392;2022-10-31T00:42:15;9.80;99.90
10901;DHT22;5503;53.208;10.392;2022-10-31T00:44:42;9.70;99.90
10901;DHT22;5503;53.208;10.392;2022-10-31T00:47:08;9.70;99.90
10901;DHT22;5503;53.208;10.392;2022-10-31T00:49:35;9.70;99.90
10901;DHT22;5503;53.208;10.392;2022-10-31T00:52:02;9.80;99.90
10901;DHT22;5503;53.208;10.392;2022-10-31T00:54:31;9.70;99.90
10901;DHT22;5503;53.208;10.392;2022-10-31T00:56:58;9.70;99.90
10901;DHT22;5503;53.208;10.392;2022-10-31T00:59:25;9.60;99.90
10901;DHT22;5503;53.208;10.392;2022-10-31T01:01:52;9.50;99.90
10901;DHT22;5503;53.208;10.392;2022-10-31T01:04:19;9.50;99.90
10901;DHT22;5503;53.208;10.392;2022-10-31T01:06:45;9.50;99.90
10901;DHT22;5503;53.208;10.392;2022-10-31T01:09:12;9.40;99.90
10901;DHT22;5503;53.208;10.392;2022-10-31T01:11:41;9.40;99.90
10901;DHT22;5503;53.208;10.392;2022-10-31T01:14:08;9.40;99.90
10901;DHT22;5503;53.208;10.392;2022-10-31T01:16:35;9.40;99.90
10901;DHT22;5503;53.208;10.392;2022-10-31T01:19:02;9.40;99.90
10901;DHT22;5503;53.208;10.392;2022-10-31T01:21:29;9.40;99.90
10901;DHT22;5503;53.208;10.392;2022-10-31T01:23:56;9.80;99.90
10901;DHT22;5503;53.208;10.392;2022-10-31T01:26:25;9.40;99.90
10901;DHT22;5503;53.208;10.392;2022-10-31T01:28:55;9.40;99.90
10901;DHT22;5503;53.208;10.392;2022-10-31T01:31:24;9.40;99.90
10901;DHT22;5503;53.208;10.392;2022-10-31T01:33:52;9.30;99.90
10901;DHT22;5503;53.208;10.392;2022-10-31T01:36:22;9.40;99.90
10901;DHT22;5503;53.208;10.392;2022-10-31T01:38:49;9.50;99.90
10901;DHT22;5503;53.208;10.392;2022-10-31T01:41:18;9.50;99.90
10901;DHT22;5503;53.208;10.392;2022-10-31T01:43:52;11.70;99.90
10901;DHT22;5503;53.208;10.392;2022-10-31T01:46:23;9.50;99.90
10901;DHT22;5503;53.208;10.392;2022-10-31T01:48:51;9.60;99.90
10901;DHT22;5503;53.208;10.392;2022-10-31T01:51:22;9.60;99.90
10901;DHT22;5503;53.208;10.392;2022-10-31T01:53:51;9.60;99.90
10901;DHT22;5503;53.208;10.392;2022-10-31T01:56:20;9.50;99.90
10901;DHT22;5503;53.208;10.392;2022-10-31T01:58:48;9.60;99.90
10901;DHT22;5503;53.208;10.392;2022-10-31T02:01:16;12.00;99.90
10901;DHT22;5503;53.208;10.392;2022-10-31T02:03:46;9.90;99.90
10901;DHT22;5503;53.208;10.392;2022-10-31T02:06:19;10.00;99.90
10901;DHT22;5503;53.208;10.392;2022-10-31T02:08:48;10.00;99.90
10901;DHT22;5503;53.208;10.392;2022-10-31T02:11:15;10.00;99.90
10901;DHT22;5503;53.208;10.392;2022-10-31T02:13:58;9.20;99.90
10901;DHT22;5503;53.208;10.392;2022-10-31T02:16:26;10.50;99.90
10901;DHT22;5503;53.208;10.392;2022-10-31T02:18:53;10.70;99.90
10901;DHT22;5503;53.208;10.392;2022-10-31T02:21:25;10.90;99.90
10901;DHT22;5503;53.208;10.392;2022-10-31T02:24:17;11.00;99.90
10901;DHT22;5503;53.208;10.392;2022-10-31T02:27:07;11.20;99.90
10901;DHT22;5503;53.208;10.392;2022-10-31T02:30:07;11.40;99.90
10901;DHT22;5503;53.208;10.392;2022-10-31T02:35:50;11.10;99.90
10901;DHT22;5503;53.208;10.392;2022-10-31T02:38:28;11.30;99.90
10901;DHT22;5503;53.208;10.392;2022-10-31T02:41:02;11.20;99.90
10901;DHT22;5503;53.208;10.392;2022-10-31T02:43:35;9.70;99.90
10901;DHT22;5503;53.208;10.392;2022-10-31T02:46:10;9.20;99.90
10901;DHT22;5503;53.208;10.392;2022-10-31T02:48:40;11.00;99.90
10901;DHT22;5503;53.208;10.392;2022-10-31T02:51:09;11.00;99.90
10901;DHT22;5503;53.208;10.392;2022-10-31T02:53:38;11.00;99.90
10901;DHT22;5503;53.208;10.392;2022-10-31T02:56:09;10.90;99.90
10901;DHT22;5503;53.208;10.392;2022-10-31T02:58:39;10.90;99.90
10901;DHT22;5503;53.208;10.392;2022-10-31T03:04:11;11.00;99.90
10901;DHT22;5503;53.208;10.392;2022-10-31T03:06:47;11.00;99.90
10901;DHT22;5503;53.208;10.392;2022-10-31T03:09:20;11.00;99.90
10901;DHT22;5503;53.208;10.392;2022-10-31T03:11:56;11.00;99.90
10901;DHT22;5503;53.208;10.392;2022-10-31T03:14:28;11.20;99.90
10901;DHT22;5503;53.208;10.392;2022-10-31T03:17:01;11.40;99.90
10901;DHT22;5503;53.208;10.392;2022-10-31T03:19:34;11.50;99.90
10901;DHT22;5503;53.208;10.392;2022-10-31T03:22:04;11.70;99.90
10901;DHT22;5503;53.208;10.392;2022-10-31T03:24:37;11.90;99.90
10901;DHT22;5503;53.208;10.392;2022-10-31T03:27:07;12.00;99.90
10901;DHT22;5503;53.208;10.392;2022-10-31T03:29:37;12.00;99.90
10901;DHT22;5503;53.208;10.392;2022-10-31T03:32:07;12.30;99.90
10901;DHT22;5503;53.208;10.392;2022-10-31T03:34:38;12.30;99.90
10901;DHT22;5503;53.208;10.392;2022-10-31T03:37:08;12.10;99.90
10901;DHT22;5503;53.208;10.392;2022-10-31T03:39:37;12.20;99.90
10901;DHT22;5503;53.208;10.392;2022-10-31T03:42:08;12.20;99.90
10901;DHT22;5503;53.208;10.392;2022-10-31T03:44:38;12.30;99.90
10901;DHT22;5503;53.208;10.392;2022-10-31T03:47:07;12.30;99.90
10901;DHT22;5503;53.208;10.392;2022-10-31T03:49:35;12.40;99.90
10901;DHT22;5503;53.208;10.392;2022-10-31T03:52:10;12.40;99.90
10901;DHT22;5503;53.208;10.392;2022-10-31T03:54:43;12.40;99.90
10901;DHT22;5503;53.208;10.392;2022-10-31T03:57:14;12.30;99.90
10901;DHT22;5503;53.208;10.392;2022-10-31T03:59:45;12.30;99.90
10901;DHT22;5503;53.208;10.392;2022-10-31T04:02:16;12.40;99.90
10901;DHT22;5503;53.208;10.392;2022-10-31T04:04:46;12.30;99.90
10901;DHT22;5503;53.208;10.392;2022-10-31T04:07:17;12.30;99.90
10901;DHT22;5503;53.208;10.392;2022-10-31T04:09:46;12.20;99.90
10901;DHT22;5503;53.208;10.392;2022-10-31T04:12:15;12.30;99.90
10901;DHT22;5503;53.208;10.392;2022-10-31T04:14:46;12.30;99.90
10901;DHT22;5503;53.208;10.392;2022-10-31T04:17:17;12.30;99.90
10901;DHT22;5503;53.208;10.392;2022-10-31T04:19:45;12.20;99.90
10901;DHT22;5503;53.208;10.392;2022-10-31T04:22:12;12.00;99.90
10901;DHT22;5503;53.208;10.392;2022-10-31T04:24:40;12.00;99.90
10901;DHT22;5503;53.208;10.392;2022-10-31T04:27:08;12.10;99.90
10901;DHT22;5503;53.208;10.392;2022-10-31T04:29:34;12.10;99.90
10901;DHT22;5503;53.208;10.392;2022-10-31T04:32:01;12.20;99.90
10901;DHT22;5503;53.208;10.392;2022-10-31T04:34:28;12.10;99.90
10901;DHT22;5503;53.208;10.392;2022-10-31T04:36:55;12.10;99.90
10901;DHT22;5503;53.208;10.392;2022-10-31T04:39:22;12.10;99.90
10901;DHT22;5503;53.208;10.392;2022-10-31T04:41:50;12.10;99.90
10901;DHT22;5503;53.208;10.392;2022-10-31T04:44:17;12.10;99.90
10901;DHT22;5503;53.208;10.392;2022-10-31T04:46:44;12.10;99.90
10901;DHT22;5503;53.208;10.392;2022-10-31T04:49:10;12.00;99.90
10901;DHT22;5503;53.208;10.392;2022-10-31T04:51:37;12.00;99.90
10901;DHT22;5503;53.208;10.392;2022-10-31T04:54:04;12.10;99.90
10901;DHT22;5503;53.208;10.392;2022-10-31T04:56:31;12.10;99.90
10901;DHT22;5503;53.208;10.392;2022-10-31T04:59:00;12.00;99.90
10901;DHT22;5503;53.208;10.392;2022-10-31T05:01:27;12.10;99.90
10901;DHT22;5503;53.208;10.392;2022-10-31T05:03:53;12.10;99.90
10901;DHT22;5503;53.208;10.392;2022-10-31T05:06:20;12.10;99.90
10901;DHT22;5503;53.208;10.392;2022-10-31T05:08:47;12.00;99.90
10901;DHT22;5503;53.208;10.392;2022-10-31T05:11:14;12.00;99.90
10901;DHT22;5503;53.208;10.392;2022-10-31T05:13:41;12.10;99.90
10901;DHT22;5503;53.208;10.392;2022-10-31T05:16:09;12.00;99.90
10901;DHT22;5503;53.208;10.392;2022-10-31T05:18:36;12.00;99.90
10901;DHT22;5503;53.208;10.392;2022-10-31T05:21:03;12.00;99.90
10901;DHT22;5503;53.208;10.392;2022-10-31T05:23:30;12.10;99.90
10901;DHT22;5503;53.208;10.392;2022-10-31T05:25:57;12.10;99.90
10901;DHT22;5503;53.208;10.392;2022-10-31T05:28:24;12.10;99.90
10901;DHT22;5503;53.208;10.392;2022-10-31T05:30:51;12.20;99.90
10901;DHT22;5503;53.208;10.392;2022-10-31T05:33:19;12.20;99.90
10901;DHT22;5503;53.208;10.392;2022-10-31T05:35:46;12.20;99.90
10901;DHT22;5503;53.208;10.392;2022-10-31T05:38:13;12.30;99.90
10901;DHT22;5503;53.208;10.392;2022-10-31T05:40:40;12.30;99.90
10901;DHT22;5503;53.208;10.392;2022-10-31T05:43:07;13.70;99.90
10901;DHT22;5503;53.208;10.392;2022-10-31T05:45:34;12.30;99.90
10901;DHT22;5503;53.208;10.392;2022-10-31T05:48:01;12.30;99.90
10901;DHT22;5503;53.208;10.392;2022-10-31T05:50:31;12.40;99.90
10901;DHT22;5503;53.208;10.392;2022-10-31T05:52:59;12.30;99.90
10901;DHT22;5503;53.208;10.392;2022-10-31T05:55:27;12.30;99.90
10901;DHT22;5503;53.208;10.392;2022-10-31T05:57:54;12.30;99.90
10901;DHT22;5503;53.208;10.392;2022-10-31T06:00:22;12.30;99.90
10901;DHT22;5503;53.208;10.392;2022-10-31T06:02:49;13.50;99.90
10901;DHT22;5503;53.208;10.392;2022-10-31T06:05:16;12.30;99.90
10901;DHT22;5503;53.208;10.392;2022-10-31T06:07:44;12.30;99.90
10901;DHT22;5503;53.208;10.392;2022-10-31T06:10:11;12.30;99.90
10901;DHT22;5503;53.208;10.392;2022-10-31T06:12:38;12.30;99.90
10901;DHT22;5503;53.208;10.392;2022-10-31T06:15:07;13.60;99.90
10901;DHT22;5503;53.208;10.392;2022-10-31T06:17:35;12.30;99.90
10901;DHT22;5503;53.208;10.392;2022-10-31T06:20:03;13.40;99.90
10901;DHT22;5503;53.208;10.392;2022-10-31T06:22:30;12.30;99.90
10901;DHT22;5503;53.208;10.392;2022-10-31T06:24:58;12.30;99.90
10901;DHT22;5503;53.208;10.392;2022-10-31T06:27:26;12.30;99.90
10901;DHT22;5503;53.208;10.392;2022-10-31T06:29:53;12.30;99.90
10901;DHT22;5503;53.208;10.392;2022-10-31T06:32:20;12.30;99.90
10901;DHT22;5503;53.208;10.392;2022-10-31T06:34:46;12.30;99.90
10901;DHT22;5503;53.208;10.392;2022-10-31T06:37:14;12.30;99.90
10901;DHT22;5503;53.208;10.392;2022-10-31T06:39:41;12.30;99.90
10901;DHT22;5503;53.208;10.392;2022-10-31T06:42:09;12.40;99.90
10901;DHT22;5503;53.208;10.392;2022-10-31T06:44:37;12.40;99.90
10901;DHT22;5503;53.208;10.392;2022-10-31T06:47:05;12.40;99.90
10901;DHT22;5503;53.208;10.392;2022-10-31T06:49:32;12.50;99.90
10901;DHT22;5503;53.208;10.392;2022-10-31T06:51:59;12.50;99.90
10901;DHT22;5503;53.208;10.392;2022-10-31T06:54:26;12.50;99.90
10901;DHT22;5503;53.208;10.392;2022-10-31T06:56:53;12.60;99.90
10901;DHT22;5503;53.208;10.392;2022-10-31T06:59:21;12.60;99.90
10901;DHT22;5503;53.208;10.392;2022-10-31T07:01:49;12.60;99.90
10901;DHT22;5503;53.208;10.392;2022-10-31T07:04:16;12.50;99.90
10901;DHT22;5503;53.208;10.392;2022-10-31T07:06:43;12.50;99.90
10901;DHT22;5503;53.208;10.392;2022-10-31T07:09:10;12.60;99.90
10901;DHT22;5503;53.208;10.392;2022-10-31T07:11:37;12.60;99.90
10901;DHT22;5503;53.208;10.392;2022-10-31T07:14:04;12.60;99.90
10901;DHT22;5503;53.208;10.392;2022-10-31T07:16:32;12.60;99.90
10901;DHT22;5503;53.208;10.392;2022-10-31T07:18:59;12.60;99.90
10901;DHT22;5503;53.208;10.392;2022-10-31T07:21:25;12.60;99.90
10901;DHT22;5503;53.208;10.392;2022-10-31T07:23:52;12.60;99.90
10901;DHT22;5503;53.208;10.392;2022-10-31T07:26:19;12.60;99.90
10901;DHT22;5503;53.208;10.392;2022-10-31T07:28:46;14.10;99.90
10901;DHT22;5503;53.208;10.392;2022-10-31T07:31:13;12.70;99.90
10901;DHT22;5503;53.208;10.392;2022-10-31T07:33:41;12.80;99.90
10901;DHT22;5503;53.208;10.392;2022-10-31T07:36:08;12.80;99.90
10901;DHT22;5503;53.208;10.392;2022-10-31T07:38:35;12.80;99.90
10901;DHT22;5503;53.208;10.392;2022-10-31T07:41:02;12.80;99.90
10901;DHT22;5503;53.208;10.392;2022-10-31T07:43:29;12.90;99.90
10901;DHT22;5503;53.208;10.392;2022-10-31T07:45:56;12.90;99.90
10901;DHT22;5503;53.208;10.392;2022-10-31T07:48:23;12.90;99.90
10901;DHT22;5503;53.208;10.392;2022-10-31T07:50:51;12.90;99.90
10901;DHT22;5503;53.208;10.392;2022-10-31T07:53:18;14.20;99.90
10901;DHT22;5503;53.208;10.392;2022-10-31T07:55:45;12.90;99.90
10901;DHT22;5503;53.208;10.392;2022-10-31T07:58:13;13.30;99.90
10901;DHT22;5503;53.208;10.392;2022-10-31T08:00:43;13.00;99.90
10901;DHT22;5503;53.208;10.392;2022-10-31T08:03:11;13.00;99.90
10901;DHT22;5503;53.208;10.392;2022-10-31T08:05:39;13.10;99.90
10901;DHT22;5503;53.208;10.392;2022-10-31T08:08:08;13.10;99.90
10901;DHT22;5503;53.208;10.392;2022-10-31T08:10:35;11.20;99.90
10901;DHT22;5503;53.208;10.392;2022-10-31T08:13:04;13.10;99.90
10901;DHT22;5503;53.208;10.392;2022-10-31T08:15:31;13.10;99.90
10901;DHT22;5503;53.208;10.392;2022-10-31T08:17:59;13.10;99.90
10901;DHT22;5503;53.208;10.392;2022-10-31T08:20:27;13.10;99.90
10901;DHT22;5503;53.208;10.392;2022-10-31T08:22:55;13.20;99.90
10901;DHT22;5503;53.208;10.392;2022-10-31T08:25:24;13.20;99.90
10901;DHT22;5503;53.208;10.392;2022-10-31T08:27:52;13.20;99.90
10901;DHT22;5503;53.208;10.392;2022-10-31T08:30:21;13.20;99.90
10901;DHT22;5503;53.208;10.392;2022-10-31T08:32:57;13.30;99.90
10901;DHT22;5503;53.208;10.392;2022-10-31T08:35:24;13.30;99.90
10901;DHT22;5503;53.208;10.392;2022-10-31T08:37:52;13.40;99.90
10901;DHT22;5503;53.208;10.392;2022-10-31T08:40:19;13.40;99.90
10901;DHT22;5503;53.208;10.392;2022-10-31T08:42:54;13.30;99.90
10901;DHT22;5503;53.208;10.392;2022-10-31T08:45:21;13.50;99.90
10901;DHT22;5503;53.208;10.392;2022-10-31T08:47:48;13.60;99.90
10901;DHT22;5503;53.208;10.392;2022-10-31T08:50:15;13.60;99.90
10901;DHT22;5503;53.208;10.392;2022-10-31T08:52:42;13.60;99.90
10901;DHT22;5503;53.208;10.392;2022-10-31T08:55:09;13.70;99.90
10901;DHT22;5503;53.208;10.392;2022-10-31T08:57:35;13.80;99.90
10901;DHT22;5503;53.208;10.392;2022-10-31T09:00:05;13.80;99.90
10901;DHT22;5503;53.208;10.392;2022-10-31T09:02:32;13.80;99.90
10901;DHT22;5503;53.208;10.392;2022-10-31T09:04:59;13.80;99.90
10901;DHT22;5503;53.208;10.392;2022-10-31T09:07:26;13.80;99.90
10901;DHT22;5503;53.208;10.392;2022-10-31T09:09:53;15.40;99.90
10901;DHT22;5503;53.208;10.392;2022-10-31T09:12:21;13.80;99.90
10901;DHT22;5503;53.208;10.392;2022-10-31T09:14:49;13.80;99.90
10901;DHT22;5503;53.208;10.392;2022-10-31T09:17:17;13.80;99.90
10901;DHT22;5503;53.208;10.392;2022-10-31T09:19:44;13.80;99.90
10901;DHT22;5503;53.208;10.392;2022-10-31T09:22:11;13.90;99.90
10901;DHT22;5503;53.208;10.392;2022-10-31T09:24:38;13.80;99.90
10901;DHT22;5503;53.208;10.392;2022-10-31T09:27:05;13.90;99.90
10901;DHT22;5503;53.208;10.392;2022-10-31T09:29:32;13.90;99.90
10901;DHT22;5503;53.208;10.392;2022-10-31T09:31:59;13.80;99.90
10901;DHT22;5503;53.208;10.392;2022-10-31T09:34:27;13.80;99.90
10901;DHT22;5503;53.208;10.392;2022-10-31T09:36:54;13.90;99.90
10901;DHT22;5503;53.208;10.392;2022-10-31T09:39:21;15.00;99.90
10901;DHT22;5503;53.208;10.392;2022-10-31T09:42:02;14.00;99.90
10901;DHT22;5503;53.208;10.392;2022-10-31T09:44:36;14.00;99.90
10901;DHT22;5503;53.208;10.392;2022-10-31T09:47:10;14.00;99.90
10901;DHT22;5503;53.208;10.392;2022-10-31T09:49:53;16.00;99.90
10901;DHT22;5503;53.208;10.392;2022-10-31T09:52:28;14.00;99.90
10901;DHT22;5503;53.208;10.392;2022-10-31T09:54:59;14.00;99.90
10901;DHT22;5503;53.208;10.392;2022-10-31T09:57:29;14.10;99.90
10901;DHT22;5503;53.208;10.392;2022-10-31T09:59:58;14.10;99.90
10901;DHT22;5503;53.208;10.392;2022-10-31T10:02:30;14.00;99.90
10901;DHT22;5503;53.208;10.392;2022-10-31T10:05:00;14.00;99.90
10901;DHT22;5503;53.208;10.392;2022-10-31T10:07:35;14.00;99.90
10901;DHT22;5503;53.208;10.392;2022-10-31T10:10:14;14.00;99.90
10901;DHT22;5503;53.208;10.392;2022-10-31T10:12:53;14.00;99.90
10901;DHT22;5503;53.208;10.392;2022-10-31T10:15:37;14.00;99.90
10901;DHT22;5503;53.208;10.392;2022-10-31T10:18:14;14.00;99.90
10901;DHT22;5503;53.208;10.392;2022-10-31T10:20:58;14.10;99.90
10901;DHT22;5503;53.208;10.392;2022-10-31T10:23:38;14.10;99.90
10901;DHT22;5503;53.208;10.392;2022-10-31T10:26:15;14.20;99.90
10901;DHT22;5503;53.208;10.392;2022-10-31T10:28:45;14.30;99.90
10901;DHT22;5503;53.208;10.392;2022-10-31T10:31:16;14.30;99.90
10901;DHT22;5503;53.208;10.392;2022-10-31T10:33:47;14.30;99.90
10901;DHT22;5503;53.208;10.392;2022-10-31T10:36:22;14.40;99.90
10901;DHT22;5503;53.208;10.392;2022-10-31T10:38:56;14.40;99.90
10901;DHT22;5503;53.208;10.392;2022-10-31T10:41:29;14.40;99.90
10901;DHT22;5503;53.208;10.392;2022-10-31T10:43:57;14.40;99.90
10901;DHT22;5503;53.208;10.392;2022-10-31T10:46:28;14.40;99.90
10901;DHT22;5503;53.208;10.392;2022-10-31T10:49:17;16.10;99.90
10901;DHT22;5503;53.208;10.392;2022-10-31T10:51:52;14.40;99.90
10901;DHT22;5503;53.208;10.392;2022-10-31T10:54:42;14.60;99.90
10901;DHT22;5503;53.208;10.392;2022-10-31T10:57:21;14.80;99.90
10901;DHT22;5503;53.208;10.392;2022-10-31T10:59:49;15.00;99.90
10901;DHT22;5503;53.208;10.392;2022-10-31T11:02:19;15.10;99.90
10901;DHT22;5503;53.208;10.392;2022-10-31T11:04:49;17.10;99.90
10901;DHT22;5503;53.208;10.392;2022-10-31T11:07:19;15.40;99.90
10901;DHT22;5503;53.208;10.392;2022-10-31T11:09:46;15.40;99.90
10901;DHT22;5503;53.208;10.392;2022-10-31T11:12:19;17.20;99.90
10901;DHT22;5503;53.208;10.392;2022-10-31T11:14:50;15.80;99.90
10901;DHT22;5503;53.208;10.392;2022-10-31T11:17:26;16.00;99.90
10901;DHT22;5503;53.208;10.392;2022-10-31T11:20:02;16.10;99.90
10901;DHT22;5503;53.208;10.392;2022-10-31T11:22:31;16.00;99.90
10901;DHT22;5503;53.208;10.392;2022-10-31T11:24:58;16.00;99.90
10901;DHT22;5503;53.208;10.392;2022-10-31T11:27:26;15.80;99.90
10901;DHT22;5503;53.208;10.392;2022-10-31T11:29:53;15.70;99.90
10901;DHT22;5503;53.208;10.392;2022-10-31T11:32:29;16.10;99.90
10901;DHT22;5503;53.208;10.392;2022-10-31T11:35:00;15.10;99.90
10901;DHT22;5503;53.208;10.392;2022-10-31T11:37:31;16.20;99.90
10901;DHT22;5503;53.208;10.392;2022-10-31T11:40:03;15.80;99.90
10901;DHT22;5503;53.208;10.392;2022-10-31T11:42:41;15.50;99.90
10901;DHT22;5503;53.208;10.392;2022-10-31T11:45:15;15.40;99.90
10901;DHT22;5503;53.208;10.392;2022-10-31T11:47:44;15.30;99.90
10901;DHT22;5503;53.208;10.392;2022-10-31T11:50:21;15.30;99.90
10901;DHT22;5503;53.208;10.392;2022-10-31T11:52:51;15.30;99.90
10901;DHT22;5503;53.208;10.392;2022-10-31T11:55:31;15.30;99.90
10901;DHT22;5503;53.208;10.392;2022-10-31T11:57:58;15.30;99.90
10901;DHT22;5503;53.208;10.392;2022-10-31T12:00:27;15.50;99.90
10901;DHT22;5503;53.208;10.392;2022-10-31T12:03:10;15.50;96.80
10901;DHT22;5503;53.208;10.392;2022-10-31T12:05:38;15.50;99.90
10901;DHT22;5503;53.208;10.392;2022-10-31T12:08:08;16.40;99.90
10901;DHT22;5503;53.208;10.392;2022-10-31T12:10:44;15.40;99.90
10901;DHT22;5503;53.208;10.392;2022-10-31T12:13:30;15.50;99.90
10901;DHT22;5503;53.208;10.392;2022-10-31T12:16:02;15.60;99.90
10901;DHT22;5503;53.208;10.392;2022-10-31T12:18:52;15.50;99.90
10901;DHT22;5503;53.208;10.392;2022-10-31T12:21:34;14.10;99.90
10901;DHT22;5503;53.208;10.392;2022-10-31T12:24:12;15.40;99.90
10901;DHT22;5503;53.208;10.392;2022-10-31T12:26:58;16.50;99.90
10901;DHT22;5503;53.208;10.392;2022-10-31T12:29:40;15.20;99.90
10901;DHT22;5503;53.208;10.392;2022-10-31T12:32:20;15.20;99.90
10901;DHT22;5503;53.208;10.392;2022-10-31T12:35:23;15.20;99.90
10901;DHT22;5503;53.208;10.392;2022-10-31T12:38:07;15.20;99.90
10901;DHT22;5503;53.208;10.392;2022-10-31T12:40:51;15.20;99.90
10901;DHT22;5503;53.208;10.392;2022-10-31T12:45:58;15.20;99.90
10901;DHT22;5503;53.208;10.392;2022-10-31T12:48:53;15.10;99.90
10901;DHT22;5503;53.208;10.392;2022-10-31T12:51:29;15.00;99.90
10901;DHT22;5503;53.208;10.392;2022-10-31T12:54:19;14.90;99.90
10901;DHT22;5503;53.208;10.392;2022-10-31T12:56:55;15.10;99.90
10901;DHT22;5503;53.208;10.392;2022-10-31T12:59:29;15.10;99.90
10901;DHT22;5503;53.208;10.392;2022-10-31T13:09:47;15.10;99.90
10901;DHT22;5503;53.208;10.392;2022-10-31T13:12:19;14.90;99.90
10901;DHT22;5503;53.208;10.392;2022-10-31T13:14:50;14.80;99.90
10901;DHT22;5503;53.208;10.392;2022-10-31T13:19:49;14.90;99.90
10901;DHT22;5503;53.208;10.392;2022-10-31T13:22:21;15.00;99.90
10901;DHT22;5503;53.208;10.392;2022-10-31T13:27:24;15.00;99.90
10901;DHT22;5503;53.208;10.392;2022-10-31T13:29:59;15.00;99.90
10901;DHT22;5503;53.208;10.392;2022-10-31T13:32:37;14.90;99.90
10901;DHT22;5503;53.208;10.392;2022-10-31T13:35:13;14.70;99.90
10901;DHT22;5503;53.208;10.392;2022-10-31T13:42:54;14.60;99.90
10901;DHT22;5503;53.208;10.392;2022-10-31T13:45:23;14.50;99.90
10901;DHT22;5503;53.208;10.392;2022-10-31T13:47:59;14.60;99.90
10901;DHT22;5503;53.208;10.392;2022-10-31T13:50:27;14.60;99.90
10901;DHT22;5503;53.208;10.392;2022-10-31T13:53:10;14.50;99.90
10901;DHT22;5503;53.208;10.392;2022-10-31T13:58:22;14.50;99.90
10901;DHT22;5503;53.208;10.392;2022-10-31T14:01:04;14.40;99.90
10901;DHT22;5503;53.208;10.392;2022-10-31T14:03:33;14.40;99.90
10901;DHT22;5503;53.208;10.392;2022-10-31T14:06:02;14.40;99.90
10901;DHT22;5503;53.208;10.392;2022-10-31T14:08:33;13.90;99.90
10901;DHT22;5503;53.208;10.392;2022-10-31T14:11:01;14.30;99.90
10901;DHT22;5503;53.208;10.392;2022-10-31T14:18:31;14.20;99.90
10901;DHT22;5503;53.208;10.392;2022-10-31T14:23:34;14.20;99.90
10901;DHT22;5503;53.208;10.392;2022-10-31T14:26:16;14.20;99.90
10901;DHT22;5503;53.208;10.392;2022-10-31T14:28:45;14.20;99.90
10901;DHT22;5503;53.208;10.392;2022-10-31T14:31:29;14.20;99.90
10901;DHT22;5503;53.208;10.392;2022-10-31T14:33:59;14.10;99.90
10901;DHT22;5503;53.208;10.392;2022-10-31T14:36:33;14.10;99.90
10901;DHT22;5503;53.208;10.392;2022-10-31T14:44:24;13.90;99.90
10901;DHT22;5503;53.208;10.392;2022-10-31T14:49:39;13.80;99.90
10901;DHT22;5503;53.208;10.392;2022-10-31T14:54:42;13.80;99.90
10901;DHT22;5503;53.208;10.392;2022-10-31T14:57:15;13.70;99.90
10901;DHT22;5503;53.208;10.392;2022-10-31T14:59:46;12.20;99.90
10901;DHT22;5503;53.208;10.392;2022-10-31T15:02:19;13.60;99.90
10901;DHT22;5503;53.208;10.392;2022-10-31T15:04:47;13.50;99.90
10901;DHT22;5503;53.208;10.392;2022-10-31T15:07:20;13.50;99.90
10901;DHT22;5503;53.208;10.392;2022-10-31T15:09:55;13.40;99.90
10901;DHT22;5503;53.208;10.392;2022-10-31T15:12:25;13.40;99.90
10901;DHT22;5503;53.208;10.392;2022-10-31T15:14:54;13.30;99.90
10901;DHT22;5503;53.208;10.392;2022-10-31T15:17:22;13.30;99.90
10901;DHT22;5503;53.208;10.392;2022-10-31T15:19:50;13.20;99.90
10901;DHT22;5503;53.208;10.392;2022-10-31T15:22:20;13.10;99.90
10901;DHT22;5503;53.208;10.392;2022-10-31T15:24:49;13.10;99.90
10901;DHT22;5503;53.208;10.392;2022-10-31T15:27:21;13.10;99.90
10901;DHT22;5503;53.208;10.392;2022-10-31T15:29:51;13.00;99.90
10901;DHT22;5503;53.208;10.392;2022-10-31T15:32:22;13.00;99.90
10901;DHT22;5503;53.208;10.392;2022-10-31T15:34:50;13.90;99.90
10901;DHT22;5503;53.208;10.392;2022-10-31T15:37:18;12.90;99.90
10901;DHT22;5503;53.208;10.392;2022-10-31T15:39:48;12.80;99.90
10901;DHT22;5503;53.208;10.392;2022-10-31T15:42:21;12.80;99.90
10901;DHT22;5503;53.208;10.392;2022-10-31T15:44:52;12.70;99.90
10901;DHT22;5503;53.208;10.392;2022-10-31T15:47:23;12.70;99.90
10901;DHT22;5503;53.208;10.392;2022-10-31T15:49:52;12.60;99.90
10901;DHT22;5503;53.208;10.392;2022-10-31T15:52:26;12.50;99.90
10901;DHT22;5503;53.208;10.392;2022-10-31T15:54:56;12.50;99.90
10901;DHT22;5503;53.208;10.392;2022-10-31T15:57:24;12.50;99.90
10901;DHT22;5503;53.208;10.392;2022-10-31T15:59:53;12.40;99.90
10901;DHT22;5503;53.208;10.392;2022-10-31T16:02:24;12.40;99.90
10901;DHT22;5503;53.208;10.392;2022-10-31T16:04:54;12.30;99.90
10901;DHT22;5503;53.208;10.392;2022-10-31T16:07:21;12.30;99.90
10901;DHT22;5503;53.208;10.392;2022-10-31T16:09:50;12.30;99.90
10901;DHT22;5503;53.208;10.392;2022-10-31T16:12:18;12.30;99.90
10901;DHT22;5503;53.208;10.392;2022-10-31T16:14:46;12.30;99.90
10901;DHT22;5503;53.208;10.392;2022-10-31T16:17:15;12.20;99.90
10901;DHT22;5503;53.208;10.392;2022-10-31T16:19:51;12.20;99.90
10901;DHT22;5503;53.208;10.392;2022-10-31T16:22:25;12.20;99.90
10901;DHT22;5503;53.208;10.392;2022-10-31T16:24:57;12.20;99.90
10901;DHT22;5503;53.208;10.392;2022-10-31T16:27:28;12.10;99.90
10901;DHT22;5503;53.208;10.392;2022-10-31T16:29:57;12.10;99.90
10901;DHT22;5503;53.208;10.392;2022-10-31T16:32:30;12.10;99.90
10901;DHT22;5503;53.208;10.392;2022-10-31T16:35:00;12.10;99.90
10901;DHT22;5503;53.208;10.392;2022-10-31T16:37:27;12.10;99.90
10901;DHT22;5503;53.208;10.392;2022-10-31T16:39:55;12.10;99.90